sensor_id;sensor_type;location;lat;lon;timestamp;temperature;humidity
20590;DHT22;10453;50.810;12.540;2023-09-19T00:02:06;17.00;99.90
20590;DHT22;10453;50.810;12.540;2023-09-19T00:06:24;17.10;99.90
20590;DHT22;10453;50.810;12.540;2023-09-19T00:10:43;17.20;99.90
20590;DHT22;10453;50.810;12.540;2023-09-19T00:15:00;17.10;99.90
20590;DHT22;10453;50.810;12.540;2023-09-19T00:19:17;17.10;99.90
20590;DHT22;10453;50.810;12.540;2023-09-19T00:23:35;17.00;99.90
20590;DHT22;10453;50.810;12.540;2023-09-19T00:27:52;17.10;99.90
20590;DHT22;10453;50.810;12.540;2023-09-19T00:32:11;17.10;99.90
20590;DHT22;10453;50.810;12.540;2023-09-19T00:36:28;17.10;99.90
20590;DHT22;10453;50.810;12.540;2023-09-19T00:40:46;17.00;99.90
20590;DHT22;10453;50.810;12.540;2023-09-19T00:45:04;16.90;99.90
20590;DHT22;10453;50.810;12.540;2023-09-19T00:49:22;16.90;99.90
20590;DHT22;10453;50.810;12.540;2023-09-19T00:53:40;16.90;99.90
20590;DHT22;10453;50.810;12.540;2023-09-19T00:58:03;17.00;99.90
20590;DHT22;10453;50.810;12.540;2023-09-19T01:02:20;16.90;99.90
20590;DHT22;10453;50.810;12.540;2023-09-19T01:06:38;16.90;99.90
20590;DHT22;10453;50.810;12.540;2023-09-19T01:10:59;16.90;99.90
20590;DHT22;10453;50.810;12.540;2023-09-19T01:24:17;16.80;99.90
20590;DHT22;10453;50.810;12.540;2023-09-19T01:28:42;16.80;99.90
20590;DHT22;10453;50.810;12.540;2023-09-19T01:32:59;16.90;99.90
20590;DHT22;10453;50.810;12.540;2023-09-19T01:37:17;16.80;99.90
20590;DHT22;10453;50.810;12.540;2023-09-19T01:41:57;16.80;99.90
20590;DHT22;10453;50.810;12.540;2023-09-19T01:46:21;16.90;99.90
20590;DHT22;10453;50.810;12.540;2023-09-19T01:51:02;16.90;99.90
20590;DHT22;10453;50.810;12.540;2023-09-19T01:55:18;16.70;99.90
20590;DHT22;10453;50.810;12.540;2023-09-19T01:59:37;16.70;99.90
20590;DHT22;10453;50.810;12.540;2023-09-19T02:03:57;16.70;99.90
20590;DHT22;10453;50.810;12.540;2023-09-19T02:08:16;16.70;99.90
20590;DHT22;10453;50.810;12.540;2023-09-19T02:12:33;16.60;99.90
20590;DHT22;10453;50.810;12.540;2023-09-19T02:16:52;16.50;99.90
20590;DHT22;10453;50.810;12.540;2023-09-19T02:21:10;16.50;99.90
20590;DHT22;10453;50.810;12.540;2023-09-19T02:25:29;16.40;99.90
20590;DHT22;10453;50.810;12.540;2023-09-19T02:29:48;16.40;99.90
20590;DHT22;10453;50.810;12.540;2023-09-19T02:34:06;16.50;99.90
20590;DHT22;10453;50.810;12.540;2023-09-19T02:38:26;16.50;99.90
20590;DHT22;10453;50.810;12.540;2023-09-19T02:42:47;16.60;99.90
20590;DHT22;10453;50.810;12.540;2023-09-19T02:47:06;16.50;99.90
20590;DHT22;10453;50.810;12.540;2023-09-19T02:51:24;16.50;99.90
20590;DHT22;10453;50.810;12.540;2023-09-19T02:55:41;16.40;99.90
20590;DHT22;10453;50.810;12.540;2023-09-19T02:59:59;16.30;99.90
20590;DHT22;10453;50.810;12.540;2023-09-19T03:04:19;16.20;99.90
20590;DHT22;10453;50.810;12.540;2023-09-19T03:08:37;16.30;99.90
20590;DHT22;10453;50.810;12.540;2023-09-19T03:12:56;16.30;99.90
20590;DHT22;10453;50.810;12.540;2023-09-19T03:17:14;16.20;99.90
20590;DHT22;10453;50.810;12.540;2023-09-19T03:21:31;16.20;99.90
20590;DHT22;10453;50.810;12.540;2023-09-19T03:25:49;16.10;99.90
20590;DHT22;10453;50.810;12.540;2023-09-19T03:30:07;16.10;99.90
20590;DHT22;10453;50.810;12.540;2023-09-19T03:34:34;16.00;99.90
20590;DHT22;10453;50.810;12.540;2023-09-19T03:38:52;16.00;99.90
20590;DHT22;10453;50.810;12.540;2023-09-19T03:43:10;16.10;99.90
20590;DHT22;10453;50.810;12.540;2023-09-19T03:47:27;16.10;99.90
20590;DHT22;10453;50.810;12.540;2023-09-19T03:51:44;16.00;99.90
20590;DHT22;10453;50.810;12.540;2023-09-19T03:56:01;15.90;99.90
20590;DHT22;10453;50.810;12.540;2023-09-19T04:00:19;15.90;99.90
20590;DHT22;10453;50.810;12.540;2023-09-19T04:04:38;16.00;99.90
20590;DHT22;10453;50.810;12.540;2023-09-19T04:08:56;16.00;99.90
20590;DHT22;10453;50.810;12.540;2023-09-19T04:13:14;15.90;99.90
20590;DHT22;10453;50.810;12.540;2023-09-19T04:17:32;15.80;99.90
20590;DHT22;10453;50.810;12.540;2023-09-19T04:21:51;15.80;99.90
20590;DHT22;10453;50.810;12.540;2023-09-19T04:26:08;15.60;99.90
20590;DHT22;10453;50.810;12.540;2023-09-19T04:30:25;15.70;99.90
20590;DHT22;10453;50.810;12.540;2023-09-19T04:34:44;15.80;99.90
20590;DHT22;10453;50.810;12.540;2023-09-19T04:39:01;15.80;99.90
20590;DHT22;10453;50.810;12.540;2023-09-19T04:43:21;15.80;99.90
20590;DHT22;10453;50.810;12.540;2023-09-19T04:47:39;15.80;99.90
20590;DHT22;10453;50.810;12.540;2023-09-19T04:51:56;15.90;99.90
20590;DHT22;10453;50.810;12.540;2023-09-19T04:56:15;15.80;99.90
20590;DHT22;10453;50.810;12.540;2023-09-19T05:00:32;15.90;99.90
20590;DHT22;10453;50.810;12.540;2023-09-19T05:04:52;15.90;99.90
20590;DHT22;10453;50.810;12.540;2023-09-19T05:09:10;16.00;99.90
20590;DHT22;10453;50.810;12.540;2023-09-19T05:13:28;15.90;99.90
20590;DHT22;10453;50.810;12.540;2023-09-19T05:17:48;15.80;99.90
20590;DHT22;10453;50.810;12.540;2023-09-19T05:22:12;15.70;99.90
20590;DHT22;10453;50.810;12.540;2023-09-19T05:26:29;15.80;99.90
20590;DHT22;10453;50.810;12.540;2023-09-19T05:30:47;15.90;99.90
20590;DHT22;10453;50.810;12.540;2023-09-19T05:35:06;15.90;99.90
20590;DHT22;10453;50.810;12.540;2023-09-19T05:39:26;15.90;99.90
20590;DHT22;10453;50.810;12.540;2023-09-19T05:43:43;15.80;99.90
20590;DHT22;10453;50.810;12.540;2023-09-19T05:48:08;15.80;99.90
20590;DHT22;10453;50.810;12.540;2023-09-19T05:52:25;16.00;99.90
20590;DHT22;10453;50.810;12.540;2023-09-19T05:56:43;16.30;99.90
20590;DHT22;10453;50.810;12.540;2023-09-19T06:01:04;16.50;99.90
20590;DHT22;10453;50.810;12.540;2023-09-19T06:05:21;16.60;99.90
20590;DHT22;10453;50.810;12.540;2023-09-19T06:09:39;16.70;99.90
20590;DHT22;10453;50.810;12.540;2023-09-19T06:13:56;16.60;99.90
20590;DHT22;10453;50.810;12.540;2023-09-19T06:18:14;16.60;99.90
20590;DHT22;10453;50.810;12.540;2023-09-19T06:22:34;16.90;99.90
20590;DHT22;10453;50.810;12.540;2023-09-19T06:26:52;17.10;99.90
20590;DHT22;10453;50.810;12.540;2023-09-19T06:31:09;17.30;99.90
20590;DHT22;10453;50.810;12.540;2023-09-19T06:35:27;17.40;99.90
20590;DHT22;10453;50.810;12.540;2023-09-19T06:39:46;17.50;99.90
20590;DHT22;10453;50.810;12.540;2023-09-19T06:44:06;17.30;99.90
20590;DHT22;10453;50.810;12.540;2023-09-19T06:48:24;17.30;99.90
20590;DHT22;10453;50.810;12.540;2023-09-19T06:52:46;17.40;99.90
20590;DHT22;10453;50.810;12.540;2023-09-19T06:57:07;17.40;99.90
20590;DHT22;10453;50.810;12.540;2023-09-19T07:01:27;17.50;99.90
20590;DHT22;10453;50.810;12.540;2023-09-19T07:05:44;17.90;99.90
20590;DHT22;10453;50.810;12.540;2023-09-19T07:10:02;18.10;99.90
20590;DHT22;10453;50.810;12.540;2023-09-19T07:14:20;18.30;99.90
20590;DHT22;10453;50.810;12.540;2023-09-19T07:18:37;18.40;99.90
20590;DHT22;10453;50.810;12.540;2023-09-19T07:22:54;18.50;99.90
20590;DHT22;10453;50.810;12.540;2023-09-19T07:27:17;18.60;99.90
20590;DHT22;10453;50.810;12.540;2023-09-19T07:31:34;18.60;99.90
20590;DHT22;10453;50.810;12.540;2023-09-19T07:35:51;18.90;99.90
20590;DHT22;10453;50.810;12.540;2023-09-19T07:40:09;19.10;99.90
20590;DHT22;10453;50.810;12.540;2023-09-19T07:44:27;19.00;99.90
20590;DHT22;10453;50.810;12.540;2023-09-19T07:48:44;19.10;99.90
20590;DHT22;10453;50.810;12.540;2023-09-19T07:53:05;19.40;99.90
20590;DHT22;10453;50.810;12.540;2023-09-19T07:57:23;19.60;99.90
20590;DHT22;10453;50.810;12.540;2023-09-19T08:01:40;20.20;99.90
20590;DHT22;10453;50.810;12.540;2023-09-19T08:05:58;19.80;99.90
20590;DHT22;10453;50.810;12.540;2023-09-19T08:10:16;19.80;99.90
20590;DHT22;10453;50.810;12.540;2023-09-19T08:14:36;19.70;99.90
20590;DHT22;10453;50.810;12.540;2023-09-19T08:18:53;19.80;99.90
20590;DHT22;10453;50.810;12.540;2023-09-19T08:23:11;19.90;99.90
20590;DHT22;10453;50.810;12.540;2023-09-19T08:27:29;20.40;99.90
20590;DHT22;10453;50.810;12.540;2023-09-19T08:31:48;20.50;99.90
20590;DHT22;10453;50.810;12.540;2023-09-19T08:36:06;20.20;99.90
20590;DHT22;10453;50.810;12.540;2023-09-19T08:40:24;20.20;99.90
20590;DHT22;10453;50.810;12.540;2023-09-19T08:44:47;19.90;99.90
20590;DHT22;10453;50.810;12.540;2023-09-19T08:49:05;19.50;99.90
20590;DHT22;10453;50.810;12.540;2023-09-19T08:53:26;19.50;99.90
20590;DHT22;10453;50.810;12.540;2023-09-19T08:57:45;19.60;99.90
20590;DHT22;10453;50.810;12.540;2023-09-19T09:02:10;19.50;99.90
20590;DHT22;10453;50.810;12.540;2023-09-19T09:06:29;19.00;99.90
20590;DHT22;10453;50.810;12.540;2023-09-19T09:10:46;19.30;99.90
20590;DHT22;10453;50.810;12.540;2023-09-19T09:15:04;19.90;99.90
20590;DHT22;10453;50.810;12.540;2023-09-19T09:19:21;20.50;99.90
20590;DHT22;10453;50.810;12.540;2023-09-19T09:23:42;21.10;99.90
20590;DHT22;10453;50.810;12.540;2023-09-19T09:28:00;20.60;99.90
20590;DHT22;10453;50.810;12.540;2023-09-19T09:36:45;20.00;99.90
20590;DHT22;10453;50.810;12.540;2023-09-19T09:41:05;20.60;99.90
20590;DHT22;10453;50.810;12.540;2023-09-19T09:45:25;21.80;99.90
20590;DHT22;10453;50.810;12.540;2023-09-19T09:50:00;21.60;99.90
20590;DHT22;10453;50.810;12.540;2023-09-19T09:54:25;21.30;99.90
20590;DHT22;10453;50.810;12.540;2023-09-19T09:58:49;21.50;99.90
20590;DHT22;10453;50.810;12.540;2023-09-19T10:03:19;21.10;99.90
20590;DHT22;10453;50.810;12.540;2023-09-19T10:07:38;20.80;99.90
20590;DHT22;10453;50.810;12.540;2023-09-19T10:12:06;21.90;99.90
20590;DHT22;10453;50.810;12.540;2023-09-19T10:16:29;22.20;99.90
20590;DHT22;10453;50.810;12.540;2023-09-19T10:20:49;23.20;99.90
20590;DHT22;10453;50.810;12.540;2023-09-19T10:25:07;22.30;99.90
20590;DHT22;10453;50.810;12.540;2023-09-19T10:29:25;22.00;99.90
20590;DHT22;10453;50.810;12.540;2023-09-19T10:33:43;22.00;99.90
20590;DHT22;10453;50.810;12.540;2023-09-19T10:38:01;21.80;99.90
20590;DHT22;10453;50.810;12.540;2023-09-19T10:42:19;21.90;99.90
20590;DHT22;10453;50.810;12.540;2023-09-19T10:46:37;22.50;99.90
20590;DHT22;10453;50.810;12.540;2023-09-19T10:51:01;22.30;99.90
20590;DHT22;10453;50.810;12.540;2023-09-19T10:55:21;21.90;99.90
20590;DHT22;10453;50.810;12.540;2023-09-19T11:00:00;22.30;98.00
20590;DHT22;10453;50.810;12.540;2023-09-19T11:04:37;23.00;99.80
20590;DHT22;10453;50.810;12.540;2023-09-19T11:09:02;23.30;99.00
20590;DHT22;10453;50.810;12.540;2023-09-19T11:13:33;22.70;99.30
20590;DHT22;10453;50.810;12.540;2023-09-19T11:17:55;22.00;99.90
20590;DHT22;10453;50.810;12.540;2023-09-19T11:22:12;21.40;99.90
20590;DHT22;10453;50.810;12.540;2023-09-19T11:26:42;21.30;99.90
20590;DHT22;10453;50.810;12.540;2023-09-19T11:31:40;21.50;99.90
20590;DHT22;10453;50.810;12.540;2023-09-19T11:35:58;21.40;99.90
20590;DHT22;10453;50.810;12.540;2023-09-19T11:40:17;21.50;99.90
20590;DHT22;10453;50.810;12.540;2023-09-19T11:44:37;21.60;99.90
20590;DHT22;10453;50.810;12.540;2023-09-19T11:48:55;21.20;99.90
20590;DHT22;10453;50.810;12.540;2023-09-19T11:53:23;21.20;99.90
20590;DHT22;10453;50.810;12.540;2023-09-19T11:57:41;21.00;99.90
20590;DHT22;10453;50.810;12.540;2023-09-19T12:02:06;21.90;99.90
20590;DHT22;10453;50.810;12.540;2023-09-19T12:06:42;23.30;99.90
20590;DHT22;10453;50.810;12.540;2023-09-19T12:11:01;23.60;99.90
20590;DHT22;10453;50.810;12.540;2023-09-19T12:15:24;23.90;91.50
20590;DHT22;10453;50.810;12.540;2023-09-19T12:19:51;23.60;97.90
20590;DHT22;10453;50.810;12.540;2023-09-19T12:24:12;22.50;96.00
20590;DHT22;10453;50.810;12.540;2023-09-19T12:28:37;23.60;97.60
20590;DHT22;10453;50.810;12.540;2023-09-19T12:32:59;24.60;91.40
20590;DHT22;10453;50.810;12.540;2023-09-19T12:37:16;24.40;99.90
20590;DHT22;10453;50.810;12.540;2023-09-19T12:41:44;24.40;94.10
20590;DHT22;10453;50.810;12.540;2023-09-19T12:46:04;24.50;85.80
20590;DHT22;10453;50.810;12.540;2023-09-19T12:50:22;23.10;83.60
20590;DHT22;10453;50.810;12.540;2023-09-19T12:55:06;23.10;88.70
20590;DHT22;10453;50.810;12.540;2023-09-19T12:59:31;23.70;83.70
20590;DHT22;10453;50.810;12.540;2023-09-19T13:12:44;23.20;85.40
20590;DHT22;10453;50.810;12.540;2023-09-19T13:17:04;23.20;82.90
20590;DHT22;10453;50.810;12.540;2023-09-19T13:21:30;23.20;82.50
20590;DHT22;10453;50.810;12.540;2023-09-19T13:25:54;23.20;86.00
20590;DHT22;10453;50.810;12.540;2023-09-19T13:30:11;23.20;92.00
20590;DHT22;10453;50.810;12.540;2023-09-19T13:34:29;24.50;83.40
20590;DHT22;10453;50.810;12.540;2023-09-19T13:38:47;24.40;85.70
20590;DHT22;10453;50.810;12.540;2023-09-19T13:43:24;23.40;90.90
20590;DHT22;10453;50.810;12.540;2023-09-19T13:48:02;22.90;90.20
20590;DHT22;10453;50.810;12.540;2023-09-19T13:52:20;22.50;86.60
20590;DHT22;10453;50.810;12.540;2023-09-19T13:56:37;22.90;82.40
20590;DHT22;10453;50.810;12.540;2023-09-19T14:00:56;22.20;87.20
20590;DHT22;10453;50.810;12.540;2023-09-19T14:05:15;22.40;88.30
20590;DHT22;10453;50.810;12.540;2023-09-19T14:09:33;22.70;84.50
20590;DHT22;10453;50.810;12.540;2023-09-19T14:13:51;22.40;81.70
20590;DHT22;10453;50.810;12.540;2023-09-19T14:18:12;22.10;82.70
20590;DHT22;10453;50.810;12.540;2023-09-19T14:22:31;21.90;80.00
20590;DHT22;10453;50.810;12.540;2023-09-19T14:26:48;21.80;75.90
20590;DHT22;10453;50.810;12.540;2023-09-19T14:31:07;21.70;77.40
20590;DHT22;10453;50.810;12.540;2023-09-19T14:35:24;21.60;75.00
20590;DHT22;10453;50.810;12.540;2023-09-19T14:39:42;21.50;76.50
20590;DHT22;10453;50.810;12.540;2023-09-19T14:44:02;21.50;76.70
20590;DHT22;10453;50.810;12.540;2023-09-19T14:48:19;21.50;79.20
20590;DHT22;10453;50.810;12.540;2023-09-19T14:52:38;21.30;80.60
20590;DHT22;10453;50.810;12.540;2023-09-19T14:56:56;21.30;83.10
20590;DHT22;10453;50.810;12.540;2023-09-19T15:01:21;21.30;84.30
20590;DHT22;10453;50.810;12.540;2023-09-19T15:05:39;21.20;89.00
20590;DHT22;10453;50.810;12.540;2023-09-19T15:09:56;21.20;86.00
20590;DHT22;10453;50.810;12.540;2023-09-19T15:14:14;20.90;87.10
20590;DHT22;10453;50.810;12.540;2023-09-19T15:18:32;21.10;84.30
20590;DHT22;10453;50.810;12.540;2023-09-19T15:22:51;21.10;84.30
20590;DHT22;10453;50.810;12.540;2023-09-19T15:27:08;21.10;83.60
20590;DHT22;10453;50.810;12.540;2023-09-19T15:31:25;21.10;83.30
20590;DHT22;10453;50.810;12.540;2023-09-19T15:35:43;21.00;83.00
20590;DHT22;10453;50.810;12.540;2023-09-19T15:40:00;20.80;85.10
20590;DHT22;10453;50.810;12.540;2023-09-19T15:44:18;20.60;85.10
20590;DHT22;10453;50.810;12.540;2023-09-19T15:48:36;20.50;81.70
20590;DHT22;10453;50.810;12.540;2023-09-19T15:52:54;20.40;85.20
20590;DHT22;10453;50.810;12.540;2023-09-19T15:57:12;20.20;85.50
20590;DHT22;10453;50.810;12.540;2023-09-19T16:01:31;20.10;89.10
20590;DHT22;10453;50.810;12.540;2023-09-19T16:05:49;20.00;86.50
20590;DHT22;10453;50.810;12.540;2023-09-19T16:10:06;20.00;80.90
20590;DHT22;10453;50.810;12.540;2023-09-19T16:14:25;19.90;79.30
20590;DHT22;10453;50.810;12.540;2023-09-19T16:19:03;19.80;76.50
20590;DHT22;10453;50.810;12.540;2023-09-19T16:23:23;19.80;78.60
20590;DHT22;10453;50.810;12.540;2023-09-19T16:27:40;19.70;78.50
20590;DHT22;10453;50.810;12.540;2023-09-19T16:31:58;19.70;82.70
20590;DHT22;10453;50.810;12.540;2023-09-19T16:36:16;19.60;83.60
20590;DHT22;10453;50.810;12.540;2023-09-19T16:40:34;19.20;89.40
20590;DHT22;10453;50.810;12.540;2023-09-19T16:44:51;18.90;90.60
20590;DHT22;10453;50.810;12.540;2023-09-19T16:49:09;19.10;89.10
20590;DHT22;10453;50.810;12.540;2023-09-19T16:53:28;19.10;90.20
20590;DHT22;10453;50.810;12.540;2023-09-19T16:57:45;18.90;89.80
20590;DHT22;10453;50.810;12.540;2023-09-19T17:02:03;18.70;91.90
20590;DHT22;10453;50.810;12.540;2023-09-19T17:06:21;18.60;91.90
20590;DHT22;10453;50.810;12.540;2023-09-19T17:10:41;18.40;95.30
20590;DHT22;10453;50.810;12.540;2023-09-19T17:15:01;18.10;98.80
20590;DHT22;10453;50.810;12.540;2023-09-19T17:19:18;17.80;99.90
20590;DHT22;10453;50.810;12.540;2023-09-19T17:23:40;17.80;99.90
20590;DHT22;10453;50.810;12.540;2023-09-19T17:27:58;17.60;99.90
20590;DHT22;10453;50.810;12.540;2023-09-19T17:32:17;17.70;99.90
20590;DHT22;10453;50.810;12.540;2023-09-19T17:36:34;17.60;99.90
20590;DHT22;10453;50.810;12.540;2023-09-19T17:40:53;17.30;99.90
20590;DHT22;10453;50.810;12.540;2023-09-19T17:45:10;17.20;99.90
20590;DHT22;10453;50.810;12.540;2023-09-19T17:49:29;17.30;99.90
20590;DHT22;10453;50.810;12.540;2023-09-19T17:53:46;17.10;99.90
20590;DHT22;10453;50.810;12.540;2023-09-19T17:58:05;17.20;99.90
20590;DHT22;10453;50.810;12.540;2023-09-19T18:02:23;17.30;99.90
20590;DHT22;10453;50.810;12.540;2023-09-19T18:06:41;17.20;99.90
20590;DHT22;10453;50.810;12.540;2023-09-19T18:11:00;16.90;99.90
20590;DHT22;10453;50.810;12.540;2023-09-19T18:15:18;16.60;99.90
20590;DHT22;10453;50.810;12.540;2023-09-19T18:19:39;16.00;99.90
20590;DHT22;10453;50.810;12.540;2023-09-19T18:23:57;15.60;99.90
20590;DHT22;10453;50.810;12.540;2023-09-19T18:28:16;15.40;99.90
20590;DHT22;10453;50.810;12.540;2023-09-19T18:32:34;15.20;99.90
20590;DHT22;10453;50.810;12.540;2023-09-19T18:36:53;15.00;99.90
20590;DHT22;10453;50.810;12.540;2023-09-19T18:41:13;15.00;99.90
20590;DHT22;10453;50.810;12.540;2023-09-19T18:45:32;14.90;99.90
20590;DHT22;10453;50.810;12.540;2023-09-19T18:49:57;15.10;99.90
20590;DHT22;10453;50.810;12.540;2023-09-19T18:54:15;16.10;99.90
20590;DHT22;10453;50.810;12.540;2023-09-19T18:58:33;16.20;99.90
20590;DHT22;10453;50.810;12.540;2023-09-19T19:02:51;16.10;99.90
20590;DHT22;10453;50.810;12.540;2023-09-19T19:07:11;16.00;99.90
20590;DHT22;10453;50.810;12.540;2023-09-19T19:11:38;15.70;99.90
20590;DHT22;10453;50.810;12.540;2023-09-19T19:15:58;15.30;99.90
20590;DHT22;10453;50.810;12.540;2023-09-19T19:20:16;15.00;99.90
20590;DHT22;10453;50.810;12.540;2023-09-19T19:24:37;14.80;99.90
20590;DHT22;10453;50.810;12.540;2023-09-19T19:28:54;14.70;99.90
20590;DHT22;10453;50.810;12.540;2023-09-19T19:33:12;14.70;99.90
20590;DHT22;10453;50.810;12.540;2023-09-19T19:37:29;14.80;99.90
20590;DHT22;10453;50.810;12.540;2023-09-19T19:41:47;14.70;99.90
20590;DHT22;10453;50.810;12.540;2023-09-19T19:46:05;14.70;99.90
20590;DHT22;10453;50.810;12.540;2023-09-19T19:50:23;14.60;99.90
20590;DHT22;10453;50.810;12.540;2023-09-19T19:54:41;14.50;99.90
20590;DHT22;10453;50.810;12.540;2023-09-19T19:58:59;14.40;99.90
20590;DHT22;10453;50.810;12.540;2023-09-19T20:03:17;14.30;99.90
20590;DHT22;10453;50.810;12.540;2023-09-19T20:07:35;14.20;99.90
20590;DHT22;10453;50.810;12.540;2023-09-19T20:11:55;14.10;99.90
20590;DHT22;10453;50.810;12.540;2023-09-19T20:16:12;13.90;99.90
20590;DHT22;10453;50.810;12.540;2023-09-19T20:20:31;13.80;99.90
20590;DHT22;10453;50.810;12.540;2023-09-19T20:24:49;13.60;99.90
20590;DHT22;10453;50.810;12.540;2023-09-19T20:29:07;13.50;99.90
20590;DHT22;10453;50.810;12.540;2023-09-19T20:33:25;13.40;99.90
20590;DHT22;10453;50.810;12.540;2023-09-19T20:37:44;13.30;99.90
20590;DHT22;10453;50.810;12.540;2023-09-19T20:42:07;13.20;99.90
20590;DHT22;10453;50.810;12.540;2023-09-19T20:46:24;13.20;99.90
20590;DHT22;10453;50.810;12.540;2023-09-19T20:50:42;13.30;99.90
20590;DHT22;10453;50.810;12.540;2023-09-19T20:55:00;13.50;99.90
20590;DHT22;10453;50.810;12.540;2023-09-19T20:59:17;13.60;99.90
20590;DHT22;10453;50.810;12.540;2023-09-19T21:03:35;13.70;99.90
20590;DHT22;10453;50.810;12.540;2023-09-19T21:07:53;13.80;99.90
20590;DHT22;10453;50.810;12.540;2023-09-19T21:12:10;14.00;99.90
20590;DHT22;10453;50.810;12.540;2023-09-19T21:16:27;14.10;99.90
20590;DHT22;10453;50.810;12.540;2023-09-19T21:20:45;14.20;99.90
20590;DHT22;10453;50.810;12.540;2023-09-19T21:25:02;14.60;99.90
20590;DHT22;10453;50.810;12.540;2023-09-19T21:29:19;14.50;99.90
20590;DHT22;10453;50.810;12.540;2023-09-19T21:33:38;14.50;99.90
20590;DHT22;10453;50.810;12.540;2023-09-19T21:37:55;14.50;99.90
20590;DHT22;10453;50.810;12.540;2023-09-19T21:42:13;14.40;99.90
20590;DHT22;10453;50.810;12.540;2023-09-19T21:46:30;14.30;99.90
20590;DHT22;10453;50.810;12.540;2023-09-19T21:50:54;14.30;99.90
20590;DHT22;10453;50.810;12.540;2023-09-19T21:55:12;14.30;99.90
20590;DHT22;10453;50.810;12.540;2023-09-19T21:59:30;14.30;99.90
20590;DHT22;10453;50.810;12.540;2023-09-19T22:03:48;14.40;99.90
20590;DHT22;10453;50.810;12.540;2023-09-19T22:08:06;14.40;99.90
20590;DHT22;10453;50.810;12.540;2023-09-19T22:12:23;14.50;99.90
20590;DHT22;10453;50.810;12.540;2023-09-19T22:16:42;14.70;99.90
20590;DHT22;10453;50.810;12.540;2023-09-19T22:20:59;14.80;99.90
20590;DHT22;10453;50.810;12.540;2023-09-19T22:25:24;15.00;99.90
20590;DHT22;10453;50.810;12.540;2023-09-19T22:29:49;15.00;99.90
20590;DHT22;10453;50.810;12.540;2023-09-19T22:34:07;15.00;99.90
20590;DHT22;10453;50.810;12.540;2023-09-19T22:38:26;15.00;99.90
20590;DHT22;10453;50.810;12.540;2023-09-19T22:42:46;15.10;99.90
20590;DHT22;10453;50.810;12.540;2023-09-19T22:47:05;15.00;99.90
20590;DHT22;10453;50.810;12.540;2023-09-19T22:51:24;14.90;99.90
20590;DHT22;10453;50.810;12.540;2023-09-19T22:55:54;14.90;99.90
20590;DHT22;10453;50.810;12.540;2023-09-19T23:00:11;14.70;99.90
20590;DHT22;10453;50.810;12.540;2023-09-19T23:04:31;14.60;99.90
20590;DHT22;10453;50.810;12.540;2023-09-19T23:09:11;14.70;99.90
20590;DHT22;10453;50.810;12.540;2023-09-19T23:13:38;14.70;99.90
20590;DHT22;10453;50.810;12.540;2023-09-19T23:17:55;14.80;99.90
20590;DHT22;10453;50.810;12.540;2023-09-19T23:22:13;14.70;99.90
20590;DHT22;10453;50.810;12.540;2023-09-19T23:26:39;14.80;99.90
20590;DHT22;10453;50.810;12.540;2023-09-19T23:31:02;14.80;99.90
20590;DHT22;10453;50.810;12.540;2023-09-19T23:35:22;14.90;99.90
20590;DHT22;10453;50.810;12.540;2023-09-19T23:39:40;14.90;99.90
20590;DHT22;10453;50.810;12.540;2023-09-19T23:43:58;14.90;99.90
20590;DHT22;10453;50.810;12.540;2023-09-19T23:48:15;15.10;99.90
20590;DHT22;10453;50.810;12.540;2023-09-19T23:52:34;15.10;99.90
20590;DHT22;10453;50.810;12.540;2023-09-19T23:56:54;15.10;99.90
